createdAt,value
2018-05-31T00:01:50.848Z,22.60
2018-05-31T00:04:17.102Z,22.60
2018-05-31T00:06:43.395Z,22.60
2018-05-31T00:09:09.832Z,22.60
2018-05-31T00:11:36.129Z,22.60
2018-05-31T00:14:03.172Z,22.50
2018-05-31T00:16:29.435Z,22.50
2018-05-31T00:18:55.701Z,22.40
2018-05-31T00:21:21.999Z,22.40
2018-05-31T00:23:48.262Z,22.40
2018-05-31T00:26:14.529Z,22.30
2018-05-31T00:28:41.564Z,22.30
2018-05-31T00:31:07.872Z,22.20
2018-05-31T00:33:34.149Z,22.20
2018-05-31T00:36:01.211Z,22.10
2018-05-31T00:38:27.693Z,22.10
2018-05-31T00:40:53.981Z,22.10
2018-05-31T00:43:20.279Z,22.10
2018-05-31T00:45:47.301Z,22.10
2018-05-31T00:48:13.587Z,22.10
2018-05-31T00:50:39.870Z,22.10
2018-05-31T00:53:06.147Z,22.10
2018-05-31T00:55:44.713Z,22.00
2018-05-31T00:58:10.982Z,22.00
2018-05-31T01:00:37.288Z,22.00
2018-05-31T01:03:04.318Z,21.90
2018-05-31T01:05:30.564Z,21.90
2018-05-31T01:07:56.837Z,21.90
2018-05-31T01:10:23.159Z,21.90
2018-05-31T01:12:49.497Z,21.80
2018-05-31T01:15:15.794Z,21.80
2018-05-31T01:17:42.124Z,21.80
2018-05-31T01:20:09.147Z,21.70
2018-05-31T01:22:35.430Z,21.70
2018-05-31T01:25:01.822Z,21.70
2018-05-31T01:27:28.077Z,21.70
2018-05-31T01:29:54.338Z,21.70
2018-05-31T01:32:20.647Z,21.60
2018-05-31T01:34:46.930Z,21.60
2018-05-31T01:37:13.205Z,21.60
2018-05-31T01:39:39.521Z,21.60
2018-05-31T01:42:05.815Z,21.60
2018-05-31T01:44:32.841Z,21.60
2018-05-31T01:46:59.139Z,21.60
2018-05-31T01:49:25.418Z,21.50
2018-05-31T01:51:51.693Z,21.50
2018-05-31T01:54:18.711Z,21.40
2018-05-31T01:56:45.766Z,21.40
2018-05-31T01:59:12.030Z,21.30
2018-05-31T02:01:38.338Z,21.40
2018-05-31T02:04:04.610Z,21.30
2018-05-31T02:06:30.894Z,21.30
2018-05-31T02:08:57.944Z,21.30
2018-05-31T02:11:24.242Z,21.30
2018-05-31T02:13:50.521Z,21.30
2018-05-31T02:16:16.821Z,21.20
2018-05-31T02:18:44.161Z,21.20
2018-05-31T02:21:11.173Z,21.10
2018-05-31T02:23:37.491Z,21.10
2018-05-31T02:26:03.771Z,21.10
2018-05-31T02:28:30.041Z,21.10
2018-05-31T02:30:56.366Z,21.10
2018-05-31T02:33:22.638Z,21.00
2018-05-31T02:35:48.902Z,20.90
2018-05-31T02:38:15.193Z,20.90
2018-05-31T02:40:41.453Z,20.90
2018-05-31T02:43:07.717Z,20.90
2018-05-31T02:45:34.004Z,20.80
2018-05-31T02:48:01.009Z,20.80
2018-05-31T02:50:27.288Z,20.80
2018-05-31T02:52:54.335Z,20.80
2018-05-31T02:55:20.596Z,20.70
2018-05-31T02:57:46.928Z,20.80
2018-05-31T03:00:13.224Z,20.80
2018-05-31T03:02:39.508Z,20.80
2018-05-31T03:05:05.825Z,20.80
2018-05-31T03:07:32.183Z,20.80
2018-05-31T03:09:58.409Z,20.70
2018-05-31T03:12:24.654Z,20.70
2018-05-31T03:14:50.969Z,20.70
2018-05-31T03:17:17.231Z,20.70
2018-05-31T03:19:44.233Z,20.80
2018-05-31T03:22:10.525Z,20.80
2018-05-31T03:24:37.517Z,20.80
2018-05-31T03:27:03.769Z,20.80
2018-05-31T03:29:30.033Z,20.80
2018-05-31T03:31:57.050Z,20.80
2018-05-31T03:34:23.354Z,20.80
2018-05-31T03:36:49.665Z,20.90
2018-05-31T03:39:15.958Z,20.90
2018-05-31T03:41:42.973Z,20.90
2018-05-31T03:44:09.274Z,20.90
2018-05-31T03:46:35.570Z,21.00
2018-05-31T03:49:01.830Z,21.10
2018-05-31T03:51:28.135Z,21.20
2018-05-31T03:53:54.396Z,21.20
2018-05-31T03:56:20.687Z,21.30
2018-05-31T03:58:47.757Z,21.40
2018-05-31T04:01:14.034Z,21.40
2018-05-31T04:03:41.078Z,21.50
2018-05-31T04:06:07.378Z,21.50
2018-05-31T04:08:33.642Z,21.50
2018-05-31T04:10:59.922Z,21.50
2018-05-31T04:13:26.245Z,21.50
2018-05-31T04:15:53.246Z,21.60
2018-05-31T04:18:19.525Z,21.50
2018-05-31T04:20:45.821Z,21.60
2018-05-31T04:23:12.103Z,21.70
2018-05-31T04:25:38.383Z,21.80
2018-05-31T04:28:04.708Z,22.00
2018-05-31T04:30:30.960Z,22.30
2018-05-31T04:32:57.932Z,24.00
2018-05-31T04:35:24.247Z,24.00
2018-05-31T04:37:50.528Z,24.60
2018-05-31T04:40:16.826Z,25.40
2018-05-31T04:42:43.136Z,26.20
2018-05-31T04:45:10.153Z,27.50
2018-05-31T04:47:36.427Z,27.50
2018-05-31T04:50:03.469Z,28.90
2018-05-31T04:52:29.745Z,28.90
2018-05-31T04:54:56.005Z,29.50
2018-05-31T04:57:22.339Z,30.10
2018-05-31T04:59:49.403Z,29.70
2018-05-31T05:02:15.674Z,29.60
2018-05-31T05:04:42.118Z,30.00
2018-05-31T05:07:08.394Z,30.10
2018-05-31T05:09:34.677Z,30.00
2018-05-31T05:12:00.979Z,29.40
2018-05-31T05:14:27.274Z,28.80
2018-05-31T05:16:54.281Z,27.60
2018-05-31T05:19:20.581Z,27.50
2018-05-31T05:21:46.859Z,27.30
2018-05-31T05:24:13.139Z,27.50
2018-05-31T05:26:39.432Z,27.80
2018-05-31T05:29:05.709Z,28.10
2018-05-31T05:31:31.970Z,28.80
2018-05-31T05:33:58.274Z,29.50
2018-05-31T05:36:24.546Z,30.10
2018-05-31T05:38:50.858Z,30.70
2018-05-31T05:41:17.153Z,31.20
2018-05-31T05:43:44.147Z,31.40
2018-05-31T05:46:10.406Z,31.40
2018-05-31T05:48:37.437Z,30.80
2018-05-31T05:51:04.471Z,30.20
2018-05-31T05:53:30.775Z,30.20
2018-05-31T05:55:57.079Z,29.80
2018-05-31T05:58:23.342Z,29.50
2018-05-31T06:00:49.657Z,29.20
2018-05-31T06:03:15.914Z,28.90
2018-05-31T06:05:42.169Z,28.60
2018-05-31T06:08:09.207Z,28.80
2018-05-31T06:10:35.556Z,28.80
2018-05-31T06:13:02.587Z,29.30
2018-05-31T06:15:29.042Z,29.30
2018-05-31T06:17:56.087Z,29.50
2018-05-31T06:20:23.118Z,29.60
2018-05-31T06:22:50.122Z,30.00
2018-05-31T06:25:16.403Z,29.90
2018-05-31T06:27:42.696Z,30.30
2018-05-31T06:30:08.973Z,30.40
2018-05-31T06:32:35.282Z,30.30
2018-05-31T06:35:02.310Z,31.00
2018-05-31T06:37:28.579Z,30.90
2018-05-31T06:39:55.590Z,31.90
2018-05-31T06:42:22.667Z,32.00
2018-05-31T06:44:49.670Z,32.00
2018-05-31T06:47:15.966Z,31.90
2018-05-31T06:49:42.224Z,31.80
2018-05-31T06:52:08.476Z,31.60
2018-05-31T06:54:34.770Z,31.00
2018-05-31T06:57:01.033Z,30.50
2018-05-31T06:59:27.313Z,30.10
2018-05-31T07:01:54.371Z,29.30
2018-05-31T07:04:20.637Z,29.30
2018-05-31T07:06:46.908Z,28.90
2018-05-31T07:09:13.213Z,28.50
2018-05-31T07:11:39.467Z,28.20
2018-05-31T07:14:05.755Z,28.20
2018-05-31T07:16:32.091Z,28.20
2018-05-31T07:18:58.328Z,28.10
2018-05-31T07:21:24.599Z,28.10
2018-05-31T07:23:50.906Z,28.20
2018-05-31T07:26:17.946Z,29.10
2018-05-31T07:28:44.217Z,29.00
2018-05-31T07:31:10.510Z,29.50
2018-05-31T07:33:37.522Z,30.50
2018-05-31T07:36:03.774Z,30.40
2018-05-31T07:38:30.038Z,30.70
2018-05-31T07:40:56.315Z,31.00
2018-05-31T07:43:22.613Z,31.20
2018-05-31T07:45:48.953Z,31.60
2018-05-31T07:48:15.224Z,31.80
2018-05-31T07:50:41.463Z,31.70
2018-05-31T07:53:08.506Z,33.40
2018-05-31T07:55:35.518Z,34.80
2018-05-31T07:58:01.840Z,34.80
2018-05-31T08:00:28.830Z,38.20
2018-05-31T08:02:55.148Z,38.10
2018-05-31T08:05:21.447Z,38.80
2018-05-31T08:07:47.757Z,38.20
2018-05-31T08:10:14.034Z,37.50
2018-05-31T08:12:40.300Z,36.70
2018-05-31T08:15:06.575Z,36.10
2018-05-31T08:17:32.870Z,35.80
2018-05-31T08:19:59.854Z,36.60
2018-05-31T08:22:26.157Z,36.60
2018-05-31T08:24:52.419Z,37.80
2018-05-31T08:27:19.502Z,38.50
2018-05-31T08:29:46.623Z,37.40
2018-05-31T08:32:13.678Z,35.90
2018-05-31T08:34:40.094Z,35.80
2018-05-31T08:37:07.182Z,33.50
2018-05-31T08:39:34.218Z,32.60
2018-05-31T08:42:01.270Z,31.80
2018-05-31T08:44:28.330Z,31.30
2018-05-31T08:46:55.349Z,31.30
2018-05-31T08:49:21.677Z,31.30
2018-05-31T08:51:48.002Z,32.50
2018-05-31T08:54:14.258Z,33.70
2018-05-31T08:56:40.543Z,34.20
2018-05-31T08:59:06.884Z,34.40
2018-05-31T09:01:33.124Z,34.40
2018-05-31T09:03:59.445Z,34.40
2018-05-31T09:06:25.745Z,34.10
2018-05-31T09:08:52.005Z,33.80
2018-05-31T09:11:18.258Z,33.50
2018-05-31T09:13:44.534Z,33.40
2018-05-31T09:16:10.826Z,33.40
2018-05-31T09:18:37.866Z,33.30
2018-05-31T09:21:04.945Z,32.90
2018-05-31T09:23:31.437Z,32.90
2018-05-31T09:25:57.725Z,32.80
2018-05-31T09:28:24.037Z,32.70
2018-05-31T09:30:51.038Z,32.60
2018-05-31T09:33:17.297Z,32.50
2018-05-31T09:35:43.586Z,32.50
2018-05-31T09:38:09.838Z,32.40
2018-05-31T09:40:36.154Z,32.40
2018-05-31T09:43:03.075Z,32.30
2018-05-31T09:45:30.181Z,32.30
2018-05-31T09:47:57.205Z,32.30
2018-05-31T09:50:23.492Z,32.30
2018-05-31T09:52:49.815Z,32.20
2018-05-31T09:55:16.081Z,32.20
2018-05-31T09:57:42.392Z,32.20
2018-05-31T10:00:08.713Z,32.10
2018-05-31T10:02:34.971Z,32.00
2018-05-31T10:05:01.315Z,32.20
2018-05-31T10:07:27.624Z,32.30
2018-05-31T10:09:53.902Z,32.20
2018-05-31T10:12:20.973Z,32.50
2018-05-31T10:14:47.254Z,32.40
2018-05-31T10:17:13.538Z,32.40
2018-05-31T10:19:39.830Z,32.50
2018-05-31T10:22:06.872Z,32.00
2018-05-31T10:24:34.145Z,31.90
2018-05-31T10:27:00.465Z,31.80
2018-05-31T10:29:27.489Z,31.50
2018-05-31T10:31:53.759Z,31.50
2018-05-31T10:34:20.033Z,31.40
2018-05-31T10:36:46.313Z,31.30
2018-05-31T10:39:13.308Z,31.20
2018-05-31T10:41:39.611Z,31.20
2018-05-31T10:44:05.944Z,31.30
2018-05-31T10:46:32.932Z,31.30
2018-05-31T10:48:59.991Z,31.30
2018-05-31T10:51:26.306Z,31.30
2018-05-31T10:53:52.590Z,31.30
2018-05-31T10:56:18.910Z,31.50
2018-05-31T10:58:45.169Z,31.70
2018-05-31T11:01:11.434Z,31.80
2018-05-31T11:03:37.722Z,31.80
2018-05-31T11:06:04.040Z,31.90
2018-05-31T11:08:30.337Z,32.00
2018-05-31T11:10:57.400Z,32.10
2018-05-31T11:13:24.469Z,32.20
2018-05-31T11:15:50.751Z,32.20
2018-05-31T11:18:17.081Z,32.30
2018-05-31T11:20:43.323Z,32.30
2018-05-31T11:23:10.325Z,32.00
2018-05-31T11:25:36.616Z,32.00
2018-05-31T11:28:03.651Z,32.00
2018-05-31T11:30:29.936Z,32.00
2018-05-31T11:32:56.226Z,31.80
2018-05-31T11:35:22.517Z,31.60
2018-05-31T11:37:48.804Z,31.60
2018-05-31T11:40:15.157Z,31.40
2018-05-31T11:42:41.449Z,31.30
2018-05-31T11:45:07.745Z,31.10
2018-05-31T11:47:34.055Z,31.00
2018-05-31T11:50:00.350Z,30.90
2018-05-31T11:52:26.642Z,30.90
2018-05-31T11:54:52.950Z,30.90
2018-05-31T11:57:19.219Z,31.10
2018-05-31T11:59:45.551Z,31.10
2018-05-31T12:02:12.776Z,31.40
2018-05-31T12:04:39.053Z,31.50
2018-05-31T12:07:05.372Z,31.70
2018-05-31T12:09:32.396Z,32.00
2018-05-31T12:11:59.413Z,32.10
2018-05-31T12:14:25.683Z,32.10
2018-05-31T12:16:52.705Z,32.20
2018-05-31T12:19:18.949Z,32.20
2018-05-31T12:21:45.275Z,32.20
2018-05-31T12:24:11.692Z,32.20
2018-05-31T12:26:37.950Z,32.00
2018-05-31T12:29:05.017Z,32.10
2018-05-31T12:31:31.348Z,32.10
2018-05-31T12:33:58.338Z,32.50
2018-05-31T12:36:24.603Z,32.40
2018-05-31T12:38:51.661Z,32.80
2018-05-31T12:41:18.666Z,33.10
2018-05-31T12:43:44.975Z,33.00
2018-05-31T12:46:11.266Z,33.20
2018-05-31T12:48:38.277Z,33.50
2018-05-31T12:51:04.579Z,33.50
2018-05-31T12:53:30.879Z,33.80
2018-05-31T12:55:57.147Z,33.90
2018-05-31T12:58:23.407Z,34.00
2018-05-31T13:00:49.716Z,34.00
2018-05-31T13:03:15.998Z,33.90
2018-05-31T13:05:42.286Z,33.80
2018-05-31T13:08:08.588Z,33.80
2018-05-31T13:10:34.846Z,33.80
2018-05-31T13:13:01.120Z,33.70
2018-05-31T13:15:27.433Z,33.70
2018-05-31T13:17:54.453Z,33.40
2018-05-31T13:20:20.773Z,33.30
2018-05-31T13:22:47.075Z,33.00
2018-05-31T13:25:13.460Z,32.70
2018-05-31T13:27:39.691Z,32.50
2018-05-31T13:30:06.942Z,32.20
2018-05-31T13:32:33.236Z,32.00
2018-05-31T13:34:59.532Z,31.70
2018-05-31T13:37:25.874Z,31.50
2018-05-31T13:39:52.151Z,31.20
2018-05-31T13:42:18.417Z,30.60
2018-05-31T13:44:44.745Z,29.50
2018-05-31T13:47:11.048Z,28.50
2018-05-31T13:49:37.324Z,27.60
2018-05-31T13:52:03.740Z,27.00
2018-05-31T13:54:30.065Z,26.80
2018-05-31T13:56:57.102Z,27.20
2018-05-31T13:59:23.541Z,27.20
2018-05-31T14:01:50.558Z,27.80
2018-05-31T14:04:16.822Z,27.80
2018-05-31T14:06:43.845Z,27.90
2018-05-31T14:09:10.166Z,27.90
2018-05-31T14:11:36.469Z,27.90
2018-05-31T14:14:02.849Z,28.00
2018-05-31T14:16:29.147Z,28.00
2018-05-31T14:18:55.405Z,28.00
2018-05-31T14:21:21.719Z,28.00
2018-05-31T14:23:47.982Z,27.90
2018-05-31T14:26:15.091Z,27.90
2018-05-31T14:28:41.387Z,27.80
2018-05-31T14:31:07.667Z,27.80
2018-05-31T14:33:33.942Z,27.80
2018-05-31T14:36:00.340Z,27.90
2018-05-31T14:38:26.650Z,27.90
2018-05-31T14:40:52.978Z,27.80
2018-05-31T14:43:19.277Z,27.70
2018-05-31T14:45:45.562Z,27.40
2018-05-31T14:48:12.592Z,25.60
2018-05-31T14:50:38.895Z,25.50
2018-05-31T14:53:05.187Z,24.40
2018-05-31T14:55:32.215Z,23.00
2018-05-31T14:57:59.276Z,22.60
2018-05-31T15:00:26.294Z,22.40
2018-05-31T15:02:52.545Z,22.30
2018-05-31T15:05:19.564Z,22.10
2018-05-31T15:07:45.867Z,22.00
2018-05-31T15:10:12.192Z,21.90
2018-05-31T15:12:38.544Z,21.90
2018-05-31T15:15:04.876Z,21.90
2018-05-31T15:17:31.134Z,21.90
2018-05-31T15:19:57.718Z,22.10
2018-05-31T15:22:24.004Z,22.20
2018-05-31T15:24:51.748Z,22.70
2018-05-31T15:27:18.046Z,22.70
2018-05-31T15:29:44.326Z,22.90
2018-05-31T15:32:10.799Z,23.00
2018-05-31T15:34:38.341Z,23.40
2018-05-31T15:37:06.270Z,23.60
2018-05-31T15:39:32.783Z,23.50
2018-05-31T15:41:59.180Z,23.70
2018-05-31T15:44:26.294Z,24.10
2018-05-31T15:46:52.553Z,24.00
2018-05-31T15:49:18.874Z,24.20
2018-05-31T15:51:45.921Z,24.60
2018-05-31T15:54:12.170Z,24.60
2018-05-31T15:56:38.506Z,24.70
2018-05-31T15:59:05.558Z,24.70
2018-05-31T16:01:31.876Z,24.70
2018-05-31T16:04:05.072Z,24.80
2018-05-31T16:06:31.333Z,24.90
2018-05-31T16:08:57.618Z,25.00
2018-05-31T16:11:25.371Z,25.20
2018-05-31T16:13:52.412Z,25.50
2018-05-31T16:16:18.810Z,25.40
2018-05-31T16:18:45.122Z,25.70
2018-05-31T16:21:11.484Z,25.70
2018-05-31T16:23:37.865Z,25.80
2018-05-31T16:26:04.345Z,25.90
2018-05-31T16:28:30.735Z,26.00
2018-05-31T16:30:57.803Z,26.10
2018-05-31T16:33:24.173Z,26.00
2018-05-31T16:35:50.421Z,26.10
2018-05-31T16:38:17.425Z,26.30
2018-05-31T16:40:43.759Z,26.30
2018-05-31T16:43:10.002Z,26.30
2018-05-31T16:45:36.266Z,26.30
2018-05-31T16:48:03.346Z,26.30
2018-05-31T16:50:29.622Z,26.30
2018-05-31T16:52:56.085Z,26.30
2018-05-31T16:55:22.509Z,26.30
2018-05-31T16:57:48.815Z,26.40
2018-05-31T17:00:15.090Z,26.40
2018-05-31T17:02:41.393Z,26.40
2018-05-31T17:05:07.704Z,26.40
2018-05-31T17:07:33.957Z,26.40
2018-05-31T17:10:01.015Z,26.70
2018-05-31T17:12:28.024Z,26.70
2018-05-31T17:14:55.140Z,26.60
2018-05-31T17:17:22.301Z,26.60
2018-05-31T17:19:48.574Z,26.60
2018-05-31T17:22:15.599Z,26.50
2018-05-31T17:24:41.902Z,26.50
2018-05-31T17:27:08.182Z,26.40
2018-05-31T17:29:35.234Z,26.40
2018-05-31T17:32:02.346Z,26.30
2018-05-31T17:34:28.637Z,26.30
2018-05-31T17:36:54.911Z,26.30
2018-05-31T17:39:21.217Z,26.20
2018-05-31T17:41:47.498Z,26.20
2018-05-31T17:44:14.547Z,26.10
2018-05-31T17:46:41.590Z,26.00
2018-05-31T17:49:08.653Z,26.00
2018-05-31T17:51:34.945Z,26.00
2018-05-31T17:54:01.241Z,26.00
2018-05-31T17:56:27.524Z,25.90
2018-05-31T17:58:54.558Z,25.90
2018-05-31T18:01:20.857Z,25.90
2018-05-31T18:03:47.168Z,25.80
2018-05-31T18:06:13.457Z,25.70
2018-05-31T18:08:40.523Z,25.60
2018-05-31T18:11:07.529Z,25.50
2018-05-31T18:13:33.917Z,25.50
2018-05-31T18:16:00.197Z,25.50
2018-05-31T18:18:26.464Z,25.50
2018-05-31T18:20:52.774Z,25.40
2018-05-31T18:23:19.219Z,25.40
2018-05-31T18:25:45.520Z,25.40
2018-05-31T18:28:11.803Z,25.40
2018-05-31T18:30:39.564Z,25.40
2018-05-31T18:33:05.858Z,25.40
2018-05-31T18:35:32.710Z,25.30
2018-05-31T18:37:59.164Z,25.30
2018-05-31T18:40:25.466Z,25.20
2018-05-31T18:42:51.748Z,25.20
2018-05-31T18:45:18.823Z,25.10
2018-05-31T18:47:45.515Z,25.00
2018-05-31T18:50:12.611Z,25.00
2018-05-31T18:55:12.002Z,24.90
2018-05-31T18:57:38.304Z,24.90
2018-05-31T19:00:05.378Z,25.00
2018-05-31T19:02:31.805Z,24.90
2018-05-31T19:04:58.168Z,25.00
2018-05-31T19:07:25.327Z,24.90
2018-05-31T19:09:51.635Z,24.90
2018-05-31T19:12:24.128Z,24.90
2018-05-31T19:14:50.523Z,24.90
2018-05-31T19:17:17.517Z,24.80
2018-05-31T19:19:50.627Z,24.80
2018-05-31T19:22:17.660Z,24.70
2018-05-31T19:24:50.041Z,24.70
2018-05-31T19:27:16.358Z,24.70
2018-05-31T19:29:42.659Z,24.60
2018-05-31T19:32:09.054Z,24.60
2018-05-31T19:34:36.130Z,24.50
2018-05-31T19:37:08.498Z,24.50
2018-05-31T19:39:34.805Z,24.40
2018-05-31T19:42:01.917Z,24.40
2018-05-31T19:44:34.526Z,24.40
2018-05-31T19:47:01.579Z,24.30
2018-05-31T19:49:28.629Z,24.30
2018-05-31T19:52:01.010Z,24.30
2018-05-31T19:54:28.006Z,24.30
2018-05-31T19:56:54.280Z,24.20
2018-05-31T19:59:28.094Z,24.10
2018-05-31T20:02:00.616Z,24.20
2018-05-31T20:04:26.926Z,24.20
2018-05-31T20:06:53.270Z,24.10
2018-05-31T20:09:19.592Z,24.00
2018-05-31T20:11:45.890Z,23.90
2018-05-31T20:14:12.210Z,23.90
2018-05-31T20:16:39.269Z,23.80
2018-05-31T20:19:05.592Z,23.80
2018-05-31T20:21:31.945Z,23.80
2018-05-31T20:23:58.225Z,23.70
2018-05-31T20:26:24.571Z,23.70
2018-05-31T20:28:50.846Z,23.60
2018-05-31T20:31:17.106Z,23.60
2018-05-31T20:33:43.400Z,23.50
2018-05-31T20:36:09.706Z,23.50
2018-05-31T20:38:36.762Z,23.50
2018-05-31T20:41:03.774Z,23.40
2018-05-31T20:43:30.918Z,23.40
2018-05-31T20:45:57.186Z,23.30
2018-05-31T20:48:23.467Z,23.40
2018-05-31T20:50:49.748Z,23.30
2018-05-31T20:53:16.025Z,23.30
2018-05-31T20:55:42.305Z,23.30
2018-05-31T20:58:08.607Z,23.20
2018-05-31T21:00:36.496Z,23.20
2018-05-31T21:03:02.773Z,23.20
2018-05-31T21:05:29.117Z,23.20
2018-05-31T21:07:55.402Z,23.20
2018-05-31T21:10:21.690Z,23.20
2018-05-31T21:12:48.021Z,23.20
2018-05-31T21:15:15.782Z,23.10
2018-05-31T21:17:42.794Z,23.20
2018-05-31T21:20:09.102Z,23.10
2018-05-31T21:22:36.109Z,23.20
2018-05-31T21:25:02.389Z,23.10
2018-05-31T21:27:28.707Z,23.20
2018-05-31T21:29:54.983Z,23.20
2018-05-31T21:32:21.484Z,23.20
2018-05-31T21:34:48.611Z,23.40
2018-05-31T21:37:15.633Z,23.40
2018-05-31T21:39:42.676Z,23.40
2018-05-31T21:42:08.976Z,23.30
2018-05-31T21:44:35.226Z,23.30
2018-05-31T21:47:01.499Z,23.30
2018-05-31T21:49:28.544Z,23.20
2018-05-31T21:51:55.549Z,23.20
2018-05-31T21:54:21.814Z,23.10
2018-05-31T21:56:48.835Z,23.10
2018-05-31T21:59:15.090Z,23.10
2018-05-31T22:01:42.101Z,23.00
2018-05-31T22:04:08.365Z,23.00
2018-05-31T22:06:35.383Z,23.00
2018-05-31T22:09:01.692Z,23.00
2018-05-31T22:11:28.011Z,23.00
2018-05-31T22:13:54.279Z,23.00
2018-05-31T22:16:20.587Z,23.00
2018-05-31T22:18:46.896Z,23.00
2018-05-31T22:21:13.200Z,22.90
2018-05-31T22:23:39.497Z,22.90
2018-05-31T22:26:05.986Z,22.90
2018-05-31T22:28:32.280Z,22.90
2018-05-31T22:30:58.545Z,22.80
2018-05-31T22:33:24.923Z,22.80
2018-05-31T22:35:51.173Z,22.80
2018-05-31T22:38:17.441Z,23.00
2018-05-31T22:40:43.725Z,23.00
2018-05-31T22:43:10.011Z,23.00
2018-05-31T22:45:36.290Z,22.90
2018-05-31T22:48:02.746Z,22.80
2018-05-31T22:50:29.806Z,22.70
2018-05-31T22:52:56.068Z,22.70
2018-05-31T22:55:22.390Z,22.60
2018-05-31T22:57:48.647Z,22.60
2018-05-31T23:00:19.984Z,22.50
2018-05-31T23:02:47.126Z,22.50
2018-05-31T23:05:13.442Z,22.50
2018-05-31T23:07:40.554Z,22.40
2018-05-31T23:10:06.868Z,22.40
2018-05-31T23:12:33.172Z,22.40
2018-05-31T23:14:59.467Z,22.40
2018-05-31T23:17:26.489Z,22.40
2018-05-31T23:19:53.549Z,22.40
2018-05-31T23:22:19.819Z,22.40
2018-05-31T23:24:46.133Z,22.40
2018-05-31T23:27:12.415Z,22.40
2018-05-31T23:29:38.669Z,22.40
2018-05-31T23:32:05.719Z,22.40
2018-05-31T23:34:31.994Z,22.30
2018-05-31T23:36:58.246Z,22.30
2018-05-31T23:39:24.579Z,22.30
2018-05-31T23:41:51.598Z,22.30
2018-05-31T23:44:17.873Z,22.30
2018-05-31T23:46:44.187Z,22.30
2018-05-31T23:49:10.433Z,22.40
2018-05-31T23:51:37.441Z,22.30
2018-05-31T23:54:03.720Z,22.30
2018-05-31T23:56:30.007Z,22.40
2018-05-31T23:58:56.267Z,22.40
